createdAt,value
2017-02-28T00:03:30.122Z,8.36
2017-02-28T00:08:26.349Z,8.27
2017-02-28T00:13:22.751Z,8.30
2017-02-28T00:18:19.202Z,8.31
2017-02-28T00:23:15.522Z,8.38
2017-02-28T00:28:11.989Z,8.26
2017-02-28T00:33:08.400Z,8.20
2017-02-28T00:38:05.118Z,8.20
2017-02-28T00:43:01.724Z,8.24
2017-02-28T00:47:58.137Z,7.85
2017-02-28T00:52:54.462Z,7.45
2017-02-28T00:57:50.882Z,7.33
2017-02-28T01:02:47.321Z,7.21
2017-02-28T01:07:43.670Z,7.20
2017-02-28T01:12:40.104Z,7.20
2017-02-28T01:17:36.436Z,7.05
2017-02-28T01:22:32.904Z,7.05
2017-02-28T01:27:29.153Z,6.85
2017-02-28T01:32:25.386Z,6.82
2017-02-28T01:37:21.684Z,6.95
2017-02-28T01:42:18.008Z,6.85
2017-02-28T01:47:14.396Z,6.79
2017-02-28T01:52:11.383Z,6.69
2017-02-28T02:02:07.934Z,6.57
2017-02-28T02:07:04.091Z,6.57
2017-02-28T02:12:00.501Z,6.42
2017-02-28T02:16:56.824Z,6.49
2017-02-28T02:21:53.490Z,6.57
2017-02-28T02:26:50.100Z,6.63
2017-02-28T02:31:46.534Z,6.85
2017-02-28T02:36:42.966Z,6.51
2017-02-28T02:41:39.455Z,6.12
2017-02-28T02:46:35.761Z,5.90
2017-02-28T02:51:32.337Z,5.82
2017-02-28T02:56:29.200Z,5.57
2017-02-28T03:01:25.391Z,5.33
2017-02-28T03:06:21.672Z,5.38
2017-02-28T03:11:17.952Z,5.28
2017-02-28T03:16:14.382Z,5.29
2017-02-28T03:21:10.633Z,5.17
2017-02-28T03:26:06.994Z,5.20
2017-02-28T03:31:03.231Z,5.15
2017-02-28T03:35:59.679Z,5.23
2017-02-28T03:40:56.129Z,5.21
2017-02-28T03:45:52.426Z,5.12
2017-02-28T03:50:49.653Z,4.97
2017-02-28T03:55:46.167Z,4.94
2017-02-28T04:00:42.678Z,5.11
2017-02-28T04:05:39.846Z,5.18
2017-02-28T04:10:36.452Z,5.02
2017-02-28T04:15:33.011Z,5.12
2017-02-28T04:20:29.425Z,5.25
2017-02-28T04:25:26.018Z,5.07
2017-02-28T04:30:22.345Z,4.99
2017-02-28T04:35:18.753Z,4.99
2017-02-28T04:40:14.821Z,5.28
2017-02-28T04:45:12.453Z,5.38
2017-02-28T04:50:09.123Z,5.36
2017-02-28T04:55:05.634Z,5.57
2017-02-28T05:00:02.289Z,5.64
2017-02-28T05:04:58.862Z,5.66
2017-02-28T05:09:55.522Z,5.69
2017-02-28T05:14:52.040Z,5.83
2017-02-28T05:19:49.196Z,5.90
2017-02-28T05:24:45.892Z,5.89
2017-02-28T05:29:42.177Z,5.66
2017-02-28T05:34:38.577Z,5.62
2017-02-28T05:39:35.083Z,5.61
2017-02-28T05:44:31.904Z,5.72
2017-02-28T05:49:28.516Z,5.79
2017-02-28T05:54:24.935Z,5.71
2017-02-28T05:59:21.432Z,5.87
2017-02-28T06:04:17.841Z,5.97
2017-02-28T06:09:14.563Z,5.90
2017-02-28T06:14:11.003Z,6.08
2017-02-28T06:19:07.443Z,6.04
2017-02-28T06:24:03.993Z,6.24
2017-02-28T06:29:00.332Z,6.19
2017-02-28T06:33:56.796Z,6.12
2017-02-28T06:38:53.281Z,6.14
2017-02-28T06:43:49.862Z,6.30
2017-02-28T06:48:46.116Z,6.38
2017-02-28T06:53:43.705Z,6.31
2017-02-28T06:58:39.963Z,6.22
2017-02-28T07:03:36.517Z,6.38
2017-02-28T07:08:33.176Z,6.49
2017-02-28T07:13:29.916Z,6.42
2017-02-28T07:18:26.254Z,6.33
2017-02-28T07:23:22.365Z,6.27
2017-02-28T07:28:18.816Z,6.42
2017-02-28T07:33:15.233Z,6.27
2017-02-28T07:38:11.708Z,6.20
2017-02-28T07:43:07.931Z,6.27
2017-02-28T07:48:04.516Z,6.33
2017-02-28T07:53:01.052Z,6.45
2017-02-28T07:57:58.771Z,6.48
2017-02-28T08:02:55.517Z,6.44
2017-02-28T08:07:51.941Z,6.39
2017-02-28T08:12:48.584Z,6.51
2017-02-28T08:17:45.247Z,6.60
2017-02-28T08:22:41.851Z,6.69
2017-02-28T08:27:38.310Z,6.67
2017-02-28T08:32:34.701Z,6.66
2017-02-28T08:37:30.852Z,6.66
2017-02-28T08:42:27.225Z,6.54
2017-02-28T08:47:23.848Z,6.49
2017-02-28T08:52:20.344Z,6.22
2017-02-28T08:57:16.740Z,6.38
2017-02-28T09:02:14.292Z,6.36
2017-02-28T09:07:10.499Z,6.49
2017-02-28T09:12:06.952Z,6.45
2017-02-28T09:17:03.357Z,6.26
2017-02-28T09:22:00.771Z,6.17
2017-02-28T09:26:57.369Z,6.42
2017-02-28T09:31:55.393Z,6.97
2017-02-28T09:36:52.474Z,7.33
2017-02-28T09:41:49.791Z,7.40
2017-02-28T09:46:46.854Z,7.17
2017-02-28T09:51:43.720Z,7.60
2017-02-28T09:56:40.305Z,7.83
2017-02-28T10:01:36.927Z,7.76
2017-02-28T10:06:33.432Z,7.48
2017-02-28T10:11:29.714Z,7.43
2017-02-28T10:16:25.878Z,7.51
2017-02-28T10:21:22.277Z,7.70
2017-02-28T10:26:18.891Z,8.09
2017-02-28T10:31:15.306Z,8.10
2017-02-28T10:36:11.760Z,7.82
2017-02-28T10:41:08.492Z,7.91
2017-02-28T10:46:05.768Z,8.09
2017-02-28T10:51:03.194Z,8.12
2017-02-28T10:55:59.537Z,8.27
2017-02-28T11:00:56.002Z,8.33
2017-02-28T11:05:52.561Z,8.36
2017-02-28T11:10:49.400Z,8.70
2017-02-28T11:15:46.387Z,8.89
2017-02-28T11:20:43.006Z,8.63
2017-02-28T11:25:39.464Z,8.41
2017-02-28T11:30:35.497Z,8.23
2017-02-28T11:35:31.831Z,8.00
2017-02-28T11:40:28.914Z,7.88
2017-02-28T11:45:25.737Z,8.30
2017-02-28T11:50:22.476Z,8.85
2017-02-28T11:55:20.408Z,9.51
2017-02-28T12:00:20.440Z,9.19
2017-02-28T12:05:16.453Z,9.10
2017-02-28T12:10:12.602Z,9.18
2017-02-28T12:15:10.536Z,9.55
2017-02-28T12:20:07.358Z,10.09
2017-02-28T12:25:03.905Z,9.92
2017-02-28T12:30:00.436Z,9.55
2017-02-28T12:34:56.145Z,9.36
2017-02-28T12:39:52.498Z,9.47
2017-02-28T12:44:48.601Z,9.28
2017-02-28T12:49:44.865Z,8.94
2017-02-28T12:54:41.018Z,8.94
2017-02-28T12:59:37.707Z,9.31
2017-02-28T13:04:34.297Z,9.22
2017-02-28T13:09:30.705Z,9.36
2017-02-28T13:14:27.398Z,9.54
2017-02-28T13:19:24.565Z,9.76
2017-02-28T13:24:21.420Z,9.48
2017-02-28T13:29:18.676Z,9.54
2017-02-28T13:34:15.327Z,10.05
2017-02-28T13:39:12.005Z,9.89
2017-02-28T13:44:08.626Z,10.23
2017-02-28T13:49:05.224Z,9.87
2017-02-28T13:54:01.542Z,9.74
2017-02-28T13:58:58.294Z,10.04
2017-02-28T14:03:54.774Z,10.05
2017-02-28T14:08:51.528Z,10.09
2017-02-28T14:13:48.045Z,10.51
2017-02-28T14:18:45.247Z,10.46
2017-02-28T14:23:41.597Z,9.76
2017-02-28T14:28:37.687Z,9.62
2017-02-28T14:33:34.438Z,9.69
2017-02-28T14:38:30.529Z,9.54
2017-02-28T14:43:27.318Z,9.69
2017-02-28T14:48:23.459Z,9.79
2017-02-28T14:53:20.108Z,9.50
2017-02-28T14:58:16.787Z,9.54
2017-02-28T15:03:12.943Z,9.36
2017-02-28T15:08:09.228Z,9.34
2017-02-28T15:13:05.634Z,9.19
2017-02-28T15:18:02.168Z,9.04
2017-02-28T15:22:58.661Z,9.06
2017-02-28T15:27:55.462Z,9.06
2017-02-28T15:32:51.963Z,9.18
2017-02-28T15:37:48.363Z,9.02
2017-02-28T15:42:45.131Z,8.73
2017-02-28T15:47:42.188Z,8.31
2017-02-28T15:52:38.088Z,8.23
2017-02-28T15:57:34.287Z,8.20
2017-02-28T16:02:30.629Z,8.10
2017-02-28T16:07:26.868Z,7.97
2017-02-28T16:12:23.377Z,7.83
2017-02-28T16:17:19.876Z,7.85
2017-02-28T16:22:16.241Z,7.58
2017-02-28T16:27:12.485Z,7.25
2017-02-28T16:32:08.740Z,6.96
2017-02-28T16:37:04.899Z,6.85
2017-02-28T16:42:01.371Z,6.88
2017-02-28T16:46:58.018Z,6.67
2017-02-28T16:51:54.315Z,6.66
2017-02-28T16:56:50.938Z,6.67
2017-02-28T17:01:47.213Z,6.88
2017-02-28T17:06:44.517Z,6.95
2017-02-28T17:11:40.907Z,6.77
2017-02-28T17:16:37.283Z,6.63
2017-02-28T17:21:33.848Z,6.69
2017-02-28T17:26:30.544Z,6.07
2017-02-28T17:31:26.776Z,5.05
2017-02-28T17:36:22.704Z,4.41
2017-02-28T17:41:18.657Z,3.88
2017-02-28T17:46:14.798Z,3.68
2017-02-28T17:51:11.083Z,3.55
2017-02-28T17:56:07.417Z,3.25
2017-02-28T18:01:03.539Z,2.89
2017-02-28T18:05:59.893Z,2.85
2017-02-28T18:10:56.972Z,3.00
2017-02-28T18:15:53.113Z,3.04
2017-02-28T18:20:49.268Z,2.86
2017-02-28T18:25:45.548Z,3.10
2017-02-28T18:30:41.983Z,3.01
2017-02-28T18:35:37.899Z,3.08
2017-02-28T18:40:34.478Z,3.16
2017-02-28T18:45:31.086Z,3.31
2017-02-28T18:50:26.993Z,3.32
2017-02-28T18:55:23.339Z,3.32
2017-02-28T19:00:19.887Z,3.34
2017-02-28T19:05:16.694Z,3.44
2017-02-28T19:10:13.074Z,3.41
2017-02-28T19:15:09.436Z,3.37
2017-02-28T19:20:06.572Z,3.26
2017-02-28T19:25:02.969Z,3.36
2017-02-28T19:29:59.224Z,3.53
2017-02-28T19:34:55.494Z,3.55
2017-02-28T19:39:52.073Z,3.50
2017-02-28T19:44:48.419Z,3.62
2017-02-28T19:49:44.870Z,3.74
2017-02-28T19:54:41.321Z,3.65
2017-02-28T19:59:37.712Z,3.51
2017-02-28T20:04:33.904Z,3.32
2017-02-28T20:09:30.502Z,3.22
2017-02-28T20:14:26.806Z,3.23
2017-02-28T20:19:22.841Z,3.40
2017-02-28T20:24:19.989Z,3.47
2017-02-28T20:29:16.717Z,3.45
2017-02-28T20:34:13.295Z,3.42
2017-02-28T20:39:09.617Z,3.58
2017-02-28T20:44:06.931Z,3.69
2017-02-28T20:49:04.057Z,3.73
2017-02-28T20:54:00.167Z,3.88
2017-02-28T20:58:56.604Z,3.94
2017-02-28T21:03:53.113Z,4.05
2017-02-28T21:08:49.487Z,3.78
2017-02-28T21:13:45.934Z,4.02
2017-02-28T21:18:43.188Z,3.80
2017-02-28T21:23:39.073Z,3.81
2017-02-28T21:28:36.163Z,3.65
2017-02-28T21:33:32.747Z,3.70
2017-02-28T21:38:29.504Z,3.74
2017-02-28T21:43:26.151Z,3.74
2017-02-28T21:48:22.595Z,3.63
2017-02-28T21:53:18.944Z,3.62
2017-02-28T21:58:15.510Z,3.68
2017-02-28T22:03:11.779Z,3.68
2017-02-28T22:08:08.626Z,3.81
2017-02-28T22:13:05.926Z,3.94
2017-02-28T22:18:02.531Z,3.95
2017-02-28T22:22:58.986Z,3.92
2017-02-28T22:27:55.498Z,3.95
2017-02-28T22:32:51.504Z,3.94
2017-02-28T22:37:48.014Z,3.69
2017-02-28T22:42:44.418Z,3.88
2017-02-28T22:47:41.627Z,3.84
2017-02-28T22:52:39.021Z,3.91
2017-02-28T22:57:35.392Z,3.87
2017-02-28T23:02:31.828Z,3.87
2017-02-28T23:07:28.990Z,3.68
2017-02-28T23:12:25.223Z,3.65
2017-02-28T23:17:21.455Z,3.63
2017-02-28T23:22:17.978Z,3.68
2017-02-28T23:27:14.602Z,3.73
2017-02-28T23:32:11.789Z,3.88
2017-02-28T23:37:08.533Z,3.98
2017-02-28T23:42:05.121Z,3.92
2017-02-28T23:47:01.333Z,3.62
2017-02-28T23:51:57.653Z,3.41
2017-02-28T23:56:54.033Z,3.28
